sensor_id;sensor_type;location;lat;lon;timestamp;pressure;altitude;pressure_sealevel;temperature;humidity
29315;BME280;16320;53.954;9.506;2023-11-25T00:01:03;100245.66;;;2.16;100.00
29315;BME280;16320;53.954;9.506;2023-11-25T00:03:32;100250.78;;;2.19;100.00
29315;BME280;16320;53.954;9.506;2023-11-25T00:06:00;100241.38;;;2.16;100.00
29315;BME280;16320;53.954;9.506;2023-11-25T00:08:28;100244.88;;;2.14;100.00
29315;BME280;16320;53.954;9.506;2023-11-25T00:10:56;100241.47;;;2.12;100.00
29315;BME280;16320;53.954;9.506;2023-11-25T00:13:24;100246.66;;;2.12;100.00
29315;BME280;16320;53.954;9.506;2023-11-25T00:15:52;100245.00;;;2.08;100.00
29315;BME280;16320;53.954;9.506;2023-11-25T00:18:21;100245.91;;;2.07;100.00
29315;BME280;16320;53.954;9.506;2023-11-25T00:20:50;100243.41;;;2.04;100.00
29315;BME280;16320;53.954;9.506;2023-11-25T00:23:18;100247.53;;;2.11;100.00
29315;BME280;16320;53.954;9.506;2023-11-25T00:25:46;100241.38;;;2.16;100.00
29315;BME280;16320;53.954;9.506;2023-11-25T00:28:14;100239.41;;;2.26;100.00
29315;BME280;16320;53.954;9.506;2023-11-25T00:30:44;100238.34;;;2.33;100.00
29315;BME280;16320;53.954;9.506;2023-11-25T00:33:13;100232.91;;;2.43;100.00
29315;BME280;16320;53.954;9.506;2023-11-25T00:35:40;100239.78;;;2.44;100.00
29315;BME280;16320;53.954;9.506;2023-11-25T00:38:09;100231.13;;;2.45;100.00
29315;BME280;16320;53.954;9.506;2023-11-25T00:40:37;100229.19;;;2.53;100.00
29315;BME280;16320;53.954;9.506;2023-11-25T00:43:05;100229.03;;;2.59;100.00
29315;BME280;16320;53.954;9.506;2023-11-25T00:45:35;100216.88;;;2.61;100.00
29315;BME280;16320;53.954;9.506;2023-11-25T00:48:03;100210.72;;;2.65;100.00
29315;BME280;16320;53.954;9.506;2023-11-25T00:50:33;100214.16;;;2.66;100.00
29315;BME280;16320;53.954;9.506;2023-11-25T00:53:01;100213.31;;;2.65;100.00
29315;BME280;16320;53.954;9.506;2023-11-25T00:55:29;100208.22;;;2.62;100.00
29315;BME280;16320;53.954;9.506;2023-11-25T00:57:58;100211.56;;;2.66;100.00
29315;BME280;16320;53.954;9.506;2023-11-25T01:00:26;100195.97;;;2.67;100.00
29315;BME280;16320;53.954;9.506;2023-11-25T01:02:57;100196.84;;;2.66;100.00
29315;BME280;16320;53.954;9.506;2023-11-25T01:05:25;100183.13;;;2.63;100.00
29315;BME280;16320;53.954;9.506;2023-11-25T01:07:53;100186.63;;;2.62;100.00
29315;BME280;16320;53.954;9.506;2023-11-25T01:10:22;100187.50;;;2.61;100.00
29315;BME280;16320;53.954;9.506;2023-11-25T01:12:50;100179.06;;;2.54;100.00
29315;BME280;16320;53.954;9.506;2023-11-25T01:15:18;100188.63;;;2.52;100.00
29315;BME280;16320;53.954;9.506;2023-11-25T01:17:46;100173.88;;;2.54;100.00
29315;BME280;16320;53.954;9.506;2023-11-25T01:20:15;100173.78;;;2.57;100.00
29315;BME280;16320;53.954;9.506;2023-11-25T01:22:45;100176.34;;;2.59;100.00
29315;BME280;16320;53.954;9.506;2023-11-25T01:25:15;100169.38;;;2.61;100.00
29315;BME280;16320;53.954;9.506;2023-11-25T01:27:43;100163.34;;;2.60;100.00
29315;BME280;16320;53.954;9.506;2023-11-25T01:30:12;100160.78;;;2.59;100.00
29315;BME280;16320;53.954;9.506;2023-11-25T01:32:43;100167.72;;;2.56;100.00
29315;BME280;16320;53.954;9.506;2023-11-25T01:35:12;100163.47;;;2.55;100.00
29315;BME280;16320;53.954;9.506;2023-11-25T01:37:40;100159.16;;;2.54;100.00
29315;BME280;16320;53.954;9.506;2023-11-25T01:40:08;100160.28;;;2.46;100.00
29315;BME280;16320;53.954;9.506;2023-11-25T01:42:39;100166.44;;;2.40;100.00
29315;BME280;16320;53.954;9.506;2023-11-25T01:45:07;100156.19;;;2.35;100.00
29315;BME280;16320;53.954;9.506;2023-11-25T01:47:36;100158.06;;;2.30;100.00
29315;BME280;16320;53.954;9.506;2023-11-25T01:50:06;100167.66;;;2.27;100.00
29315;BME280;16320;53.954;9.506;2023-11-25T01:52:35;100162.53;;;2.25;100.00
29315;BME280;16320;53.954;9.506;2023-11-25T01:55:05;100153.13;;;2.23;100.00
29315;BME280;16320;53.954;9.506;2023-11-25T01:57:36;100165.16;;;2.24;100.00
29315;BME280;16320;53.954;9.506;2023-11-25T02:00:07;100169.50;;;2.23;100.00
29315;BME280;16320;53.954;9.506;2023-11-25T02:02:36;100172.09;;;2.23;100.00
29315;BME280;16320;53.954;9.506;2023-11-25T02:05:05;100179.03;;;2.23;100.00
29315;BME280;16320;53.954;9.506;2023-11-25T02:07:35;100176.38;;;2.24;100.00
29315;BME280;16320;53.954;9.506;2023-11-25T02:10:06;100172.09;;;2.23;100.00
29315;BME280;16320;53.954;9.506;2023-11-25T02:12:36;100173.00;;;2.20;100.00
29315;BME280;16320;53.954;9.506;2023-11-25T02:15:09;100173.06;;;2.19;100.00
29315;BME280;16320;53.954;9.506;2023-11-25T02:17:41;100166.31;;;2.13;100.00
29315;BME280;16320;53.954;9.506;2023-11-25T02:20:12;100174.06;;;2.13;100.00
29315;BME280;16320;53.954;9.506;2023-11-25T02:22:56;100171.59;;;2.09;100.00
29315;BME280;16320;53.954;9.506;2023-11-25T02:25:25;100158.66;;;2.09;100.00
29315;BME280;16320;53.954;9.506;2023-11-25T02:27:54;100166.41;;;2.09;100.00
29315;BME280;16320;53.954;9.506;2023-11-25T02:30:23;100168.13;;;2.10;100.00
29315;BME280;16320;53.954;9.506;2023-11-25T02:32:52;100165.50;;;2.11;100.00
29315;BME280;16320;53.954;9.506;2023-11-25T02:35:21;100155.22;;;2.08;100.00
29315;BME280;16320;53.954;9.506;2023-11-25T02:37:49;100161.16;;;2.12;100.00
29315;BME280;16320;53.954;9.506;2023-11-25T02:40:17;100154.19;;;2.14;100.00
29315;BME280;16320;53.954;9.506;2023-11-25T02:42:46;100146.41;;;2.14;100.00
29315;BME280;16320;53.954;9.506;2023-11-25T02:45:19;100143.81;;;2.14;100.00
29315;BME280;16320;53.954;9.506;2023-11-25T02:47:50;100141.97;;;2.19;100.00
29315;BME280;16320;53.954;9.506;2023-11-25T02:50:20;100141.88;;;2.22;100.00
29315;BME280;16320;53.954;9.506;2023-11-25T02:52:48;100132.28;;;2.26;100.00
29315;BME280;16320;53.954;9.506;2023-11-25T02:55:16;100124.44;;;2.29;100.00
29315;BME280;16320;53.954;9.506;2023-11-25T02:57:46;100131.28;;;2.31;100.00
29315;BME280;16320;53.954;9.506;2023-11-25T03:00:15;100126.00;;;2.34;100.00
29315;BME280;16320;53.954;9.506;2023-11-25T03:02:59;100122.44;;;2.38;100.00
29315;BME280;16320;53.954;9.506;2023-11-25T03:05:36;100127.44;;;2.45;100.00
29315;BME280;16320;53.954;9.506;2023-11-25T03:08:06;100123.81;;;2.52;100.00
29315;BME280;16320;53.954;9.506;2023-11-25T03:10:38;100128.72;;;2.61;100.00
29315;BME280;16320;53.954;9.506;2023-11-25T03:13:10;100149.22;;;2.70;100.00
29315;BME280;16320;53.954;9.506;2023-11-25T03:15:39;100170.47;;;2.83;100.00
29315;BME280;16320;53.954;9.506;2023-11-25T03:18:07;100166.28;;;2.78;100.00
29315;BME280;16320;53.954;9.506;2023-11-25T03:20:38;100156.88;;;2.75;100.00
29315;BME280;16320;53.954;9.506;2023-11-25T03:23:06;100164.63;;;2.75;100.00
29315;BME280;16320;53.954;9.506;2023-11-25T03:25:34;100166.13;;;2.84;100.00
29315;BME280;16320;53.954;9.506;2023-11-25T03:28:04;100161.72;;;2.86;100.00
29315;BME280;16320;53.954;9.506;2023-11-25T03:30:35;100174.69;;;2.86;100.00
29315;BME280;16320;53.954;9.506;2023-11-25T03:33:04;100177.25;;;2.87;100.00
29315;BME280;16320;53.954;9.506;2023-11-25T03:35:34;100184.97;;;2.89;100.00
29315;BME280;16320;53.954;9.506;2023-11-25T03:38:02;100178.13;;;2.88;100.00
29315;BME280;16320;53.954;9.506;2023-11-25T03:40:31;100183.31;;;2.88;100.00
29315;BME280;16320;53.954;9.506;2023-11-25T03:43:00;100177.28;;;2.86;100.00
29315;BME280;16320;53.954;9.506;2023-11-25T03:45:28;100176.44;;;2.85;100.00
29315;BME280;16320;53.954;9.506;2023-11-25T03:47:56;100176.41;;;2.87;100.00
29315;BME280;16320;53.954;9.506;2023-11-25T03:50:26;100178.91;;;2.90;100.00
29315;BME280;16320;53.954;9.506;2023-11-25T03:52:55;100167.66;;;2.91;100.00
29315;BME280;16320;53.954;9.506;2023-11-25T03:55:23;100171.03;;;2.93;100.00
29315;BME280;16320;53.954;9.506;2023-11-25T03:57:51;100152.97;;;2.90;100.00
29315;BME280;16320;53.954;9.506;2023-11-25T04:00:20;100150.28;;;2.93;100.00
29315;BME280;16320;53.954;9.506;2023-11-25T04:02:51;100131.22;;;2.94;100.00
29315;BME280;16320;53.954;9.506;2023-11-25T04:05:20;100141.47;;;2.99;100.00
29315;BME280;16320;53.954;9.506;2023-11-25T04:07:49;100131.88;;;3.02;100.00
29315;BME280;16320;53.954;9.506;2023-11-25T04:10:18;100132.66;;;3.04;100.00
29315;BME280;16320;53.954;9.506;2023-11-25T04:12:48;100120.47;;;3.06;100.00
29315;BME280;16320;53.954;9.506;2023-11-25T04:15:18;100135.22;;;3.06;100.00
29315;BME280;16320;53.954;9.506;2023-11-25T04:17:48;100136.09;;;3.05;100.00
29315;BME280;16320;53.954;9.506;2023-11-25T04:20:19;100157.75;;;3.04;100.00
29315;BME280;16320;53.954;9.506;2023-11-25T04:22:56;100179.09;;;3.14;100.00
29315;BME280;16320;53.954;9.506;2023-11-25T04:25:26;100183.91;;;3.26;100.00
29315;BME280;16320;53.954;9.506;2023-11-25T04:27:55;100194.03;;;3.35;100.00
29315;BME280;16320;53.954;9.506;2023-11-25T04:30:23;100191.28;;;3.40;100.00
29315;BME280;16320;53.954;9.506;2023-11-25T04:32:51;100192.84;;;3.45;100.00
29315;BME280;16320;53.954;9.506;2023-11-25T04:35:19;100188.34;;;3.51;100.00
29315;BME280;16320;53.954;9.506;2023-11-25T04:37:48;100189.88;;;3.58;100.00
29315;BME280;16320;53.954;9.506;2023-11-25T04:40:16;100191.47;;;3.62;100.00
29315;BME280;16320;53.954;9.506;2023-11-25T04:42:45;100180.19;;;3.63;100.00
29315;BME280;16320;53.954;9.506;2023-11-25T04:45:13;100183.53;;;3.66;100.00
29315;BME280;16320;53.954;9.506;2023-11-25T04:47:45;100188.72;;;3.66;100.00
29315;BME280;16320;53.954;9.506;2023-11-25T04:50:16;100191.19;;;3.71;100.00
29315;BME280;16320;53.954;9.506;2023-11-25T04:52:44;100194.53;;;3.75;100.00
29315;BME280;16320;53.954;9.506;2023-11-25T04:55:13;100190.13;;;3.77;100.00
29315;BME280;16320;53.954;9.506;2023-11-25T04:57:42;100197.03;;;3.78;100.00
29315;BME280;16320;53.954;9.506;2023-11-25T05:00:13;100194.47;;;3.76;100.00
29315;BME280;16320;53.954;9.506;2023-11-25T05:02:42;100185.78;;;3.77;100.00
29315;BME280;16320;53.954;9.506;2023-11-25T05:05:10;100198.59;;;3.83;100.00
29315;BME280;16320;53.954;9.506;2023-11-25T05:07:40;100191.59;;;3.85;100.00
29315;BME280;16320;53.954;9.506;2023-11-25T05:10:09;100186.34;;;3.87;100.00
29315;BME280;16320;53.954;9.506;2023-11-25T05:12:39;100183.78;;;3.85;100.00
29315;BME280;16320;53.954;9.506;2023-11-25T05:15:10;100183.78;;;3.85;100.00
29315;BME280;16320;53.954;9.506;2023-11-25T05:17:39;100195.03;;;3.86;100.00
29315;BME280;16320;53.954;9.506;2023-11-25T05:20:08;100185.53;;;3.85;100.00
29315;BME280;16320;53.954;9.506;2023-11-25T05:22:44;100182.09;;;3.84;100.00
29315;BME280;16320;53.954;9.506;2023-11-25T05:25:13;100171.78;;;3.81;100.00
29315;BME280;16320;53.954;9.506;2023-11-25T05:27:43;100166.59;;;3.81;100.00
29315;BME280;16320;53.954;9.506;2023-11-25T05:30:11;100151.88;;;3.82;100.00
29315;BME280;16320;53.954;9.506;2023-11-25T05:32:42;100150.22;;;3.79;100.00
29315;BME280;16320;53.954;9.506;2023-11-25T05:35:12;100133.84;;;3.77;100.00
29315;BME280;16320;53.954;9.506;2023-11-25T05:37:42;100127.03;;;3.73;100.00
29315;BME280;16320;53.954;9.506;2023-11-25T05:40:12;100122.84;;;3.69;100.00
29315;BME280;16320;53.954;9.506;2023-11-25T05:42:42;100115.16;;;3.66;100.00
29315;BME280;16320;53.954;9.506;2023-11-25T05:45:16;100123.78;;;3.66;100.00
29315;BME280;16320;53.954;9.506;2023-11-25T05:47:45;100115.25;;;3.63;100.00
29315;BME280;16320;53.954;9.506;2023-11-25T05:50:16;100112.75;;;3.60;100.00
29315;BME280;16320;53.954;9.506;2023-11-25T05:52:48;100115.34;;;3.60;100.00
29315;BME280;16320;53.954;9.506;2023-11-25T05:55:17;100117.25;;;3.55;100.00
29315;BME280;16320;53.954;9.506;2023-11-25T05:57:49;100104.50;;;3.47;100.00
29315;BME280;16320;53.954;9.506;2023-11-25T06:00:20;100103.03;;;3.40;100.00
29315;BME280;16320;53.954;9.506;2023-11-25T06:02:50;100098.78;;;3.37;100.00
29315;BME280;16320;53.954;9.506;2023-11-25T06:05:20;100095.38;;;3.35;100.00
29315;BME280;16320;53.954;9.506;2023-11-25T06:07:48;100095.47;;;3.32;100.00
29315;BME280;16320;53.954;9.506;2023-11-25T06:10:18;100109.34;;;3.31;100.00
29315;BME280;16320;53.954;9.506;2023-11-25T06:12:47;100105.84;;;3.32;100.00
29315;BME280;16320;53.954;9.506;2023-11-25T06:15:17;100114.44;;;3.34;100.00
29315;BME280;16320;53.954;9.506;2023-11-25T06:17:46;100110.97;;;3.35;100.00
29315;BME280;16320;53.954;9.506;2023-11-25T06:20:15;100105.69;;;3.38;100.00
29315;BME280;16320;53.954;9.506;2023-11-25T06:22:44;100104.81;;;3.38;100.00
29315;BME280;16320;53.954;9.506;2023-11-25T06:25:12;100110.16;;;3.33;100.00
29315;BME280;16320;53.954;9.506;2023-11-25T06:27:42;100100.63;;;3.34;100.00
29315;BME280;16320;53.954;9.506;2023-11-25T06:30:14;100111.09;;;3.30;100.00
29315;BME280;16320;53.954;9.506;2023-11-25T06:32:43;100105.03;;;3.32;100.00
29315;BME280;16320;53.954;9.506;2023-11-25T06:35:11;100104.25;;;3.28;100.00
29315;BME280;16320;53.954;9.506;2023-11-25T06:37:40;100104.34;;;3.25;100.00
29315;BME280;16320;53.954;9.506;2023-11-25T06:40:08;100100.81;;;3.27;100.00
29315;BME280;16320;53.954;9.506;2023-11-25T06:42:41;100109.44;;;3.28;100.00
29315;BME280;16320;53.954;9.506;2023-11-25T06:45:09;100111.25;;;3.26;100.00
29315;BME280;16320;53.954;9.506;2023-11-25T06:47:41;100111.25;;;3.26;100.00
29315;BME280;16320;53.954;9.506;2023-11-25T06:50:10;100109.44;;;3.28;100.00
29315;BME280;16320;53.954;9.506;2023-11-25T06:52:39;100112.94;;;3.27;100.00
29315;BME280;16320;53.954;9.506;2023-11-25T06:55:07;100100.94;;;3.23;100.00
29315;BME280;16320;53.954;9.506;2023-11-25T06:57:37;100108.63;;;3.26;100.00
29315;BME280;16320;53.954;9.506;2023-11-25T07:00:08;100103.63;;;3.20;100.00
29315;BME280;16320;53.954;9.506;2023-11-25T07:02:39;100109.84;;;3.16;100.00
29315;BME280;16320;53.954;9.506;2023-11-25T07:05:09;100097.78;;;3.13;100.00
29315;BME280;16320;53.954;9.506;2023-11-25T07:07:37;100108.25;;;3.10;100.00
29315;BME280;16320;53.954;9.506;2023-11-25T07:10:06;100110.03;;;3.09;100.00
29315;BME280;16320;53.954;9.506;2023-11-25T07:12:37;100120.16;;;3.17;100.00
29315;BME280;16320;53.954;9.506;2023-11-25T07:15:06;100119.16;;;3.21;100.00
29315;BME280;16320;53.954;9.506;2023-11-25T07:17:36;100113.03;;;3.24;100.00
29315;BME280;16320;53.954;9.506;2023-11-25T07:20:07;100127.59;;;3.28;100.00
29315;BME280;16320;53.954;9.506;2023-11-25T07:22:41;100137.94;;;3.29;100.00
29315;BME280;16320;53.954;9.506;2023-11-25T07:25:13;100131.91;;;3.29;100.00
29315;BME280;16320;53.954;9.506;2023-11-25T07:27:43;100135.38;;;3.28;100.00
29315;BME280;16320;53.954;9.506;2023-11-25T07:30:13;100143.03;;;3.33;100.00
29315;BME280;16320;53.954;9.506;2023-11-25T07:32:42;100146.50;;;3.33;100.00
29315;BME280;16320;53.954;9.506;2023-11-25T07:35:12;100150.69;;;3.37;100.00
29315;BME280;16320;53.954;9.506;2023-11-25T07:37:40;100152.41;;;3.38;100.00
29315;BME280;16320;53.954;9.506;2023-11-25T07:40:09;100150.69;;;3.37;100.00
29315;BME280;16320;53.954;9.506;2023-11-25T07:42:41;100161.06;;;3.37;100.00
29315;BME280;16320;53.954;9.506;2023-11-25T07:45:12;100165.25;;;3.43;100.00
29315;BME280;16320;53.954;9.506;2023-11-25T07:47:40;100168.53;;;3.48;100.00
29315;BME280;16320;53.954;9.506;2023-11-25T07:50:11;100165.81;;;3.53;100.00
29315;BME280;16320;53.954;9.506;2023-11-25T07:52:39;100167.47;;;3.54;100.00
29315;BME280;16320;53.954;9.506;2023-11-25T07:55:09;100163.25;;;3.51;100.00
29315;BME280;16320;53.954;9.506;2023-11-25T07:57:37;100168.59;;;3.46;100.00
29315;BME280;16320;53.954;9.506;2023-11-25T08:00:07;100173.88;;;3.43;100.00
29315;BME280;16320;53.954;9.506;2023-11-25T08:02:38;100176.56;;;3.40;100.00
29315;BME280;16320;53.954;9.506;2023-11-25T08:05:08;100178.34;;;3.38;100.00
29315;BME280;16320;53.954;9.506;2023-11-25T08:07:37;100179.94;;;3.42;100.00
29315;BME280;16320;53.954;9.506;2023-11-25T08:10:06;100179.25;;;3.37;100.00
29315;BME280;16320;53.954;9.506;2023-11-25T08:12:34;100185.13;;;3.42;100.00
29315;BME280;16320;53.954;9.506;2023-11-25T08:15:03;100198.03;;;3.45;100.00
29315;BME280;16320;53.954;9.506;2023-11-25T08:17:31;100204.00;;;3.47;100.00
29315;BME280;16320;53.954;9.506;2023-11-25T08:19:59;100207.44;;;3.50;100.00
29315;BME280;16320;53.954;9.506;2023-11-25T08:22:28;100215.31;;;3.46;100.00
29315;BME280;16320;53.954;9.506;2023-11-25T08:24:56;100211.00;;;3.45;100.00
29315;BME280;16320;53.954;9.506;2023-11-25T08:27:28;100215.28;;;3.48;100.00
29315;BME280;16320;53.954;9.506;2023-11-25T08:29:57;100209.22;;;3.47;100.00
29315;BME280;16320;53.954;9.506;2023-11-25T08:32:25;100218.63;;;3.52;100.00
29315;BME280;16320;53.954;9.506;2023-11-25T08:34:53;100221.22;;;3.52;100.00
29315;BME280;16320;53.954;9.506;2023-11-25T08:37:21;100232.41;;;3.54;100.00
29315;BME280;16320;53.954;9.506;2023-11-25T08:39:57;100237.50;;;3.57;100.00
29315;BME280;16320;53.954;9.506;2023-11-25T08:42:27;100231.41;;;3.58;100.00
29315;BME280;16320;53.954;9.506;2023-11-25T08:44:57;100225.25;;;3.60;100.00
29315;BME280;16320;53.954;9.506;2023-11-25T08:47:28;100229.53;;;3.63;100.00
29315;BME280;16320;53.954;9.506;2023-11-25T08:49:56;100229.44;;;3.66;100.00
29315;BME280;16320;53.954;9.506;2023-11-25T08:52:24;100241.50;;;3.67;100.00
29315;BME280;16320;53.954;9.506;2023-11-25T08:54:54;100243.13;;;3.71;100.00
29315;BME280;16320;53.954;9.506;2023-11-25T08:57:22;100242.13;;;3.75;100.00
29315;BME280;16320;53.954;9.506;2023-11-25T08:59:50;100244.53;;;3.81;100.00
29315;BME280;16320;53.954;9.506;2023-11-25T09:02:18;100240.19;;;3.82;100.00
29315;BME280;16320;53.954;9.506;2023-11-25T09:04:50;100243.56;;;3.85;100.00
29315;BME280;16320;53.954;9.506;2023-11-25T09:07:35;100242.69;;;3.85;100.00
29315;BME280;16320;53.954;9.506;2023-11-25T09:10:05;100249.50;;;3.89;100.00
29315;BME280;16320;53.954;9.506;2023-11-25T09:12:35;100259.09;;;3.87;100.00
29315;BME280;16320;53.954;9.506;2023-11-25T09:15:04;100264.94;;;3.94;100.00
29315;BME280;16320;53.954;9.506;2023-11-25T09:17:33;100272.63;;;3.97;100.00
29315;BME280;16320;53.954;9.506;2023-11-25T09:20:15;100267.34;;;4.00;100.00
29315;BME280;16320;53.954;9.506;2023-11-25T09:22:44;100264.66;;;4.03;100.00
29315;BME280;16320;53.954;9.506;2023-11-25T09:25:12;100262.84;;;4.05;100.00
29315;BME280;16320;53.954;9.506;2023-11-25T09:27:42;100268.75;;;4.10;100.00
29315;BME280;16320;53.954;9.506;2023-11-25T09:30:12;100273.06;;;4.11;100.00
29315;BME280;16320;53.954;9.506;2023-11-25T09:32:42;100277.34;;;4.12;100.00
29315;BME280;16320;53.954;9.506;2023-11-25T09:35:12;100275.56;;;4.14;100.00
29315;BME280;16320;53.954;9.506;2023-11-25T09:37:44;100278.03;;;4.17;100.00
29315;BME280;16320;53.954;9.506;2023-11-25T09:40:15;100277.94;;;4.20;100.00
29315;BME280;16320;53.954;9.506;2023-11-25T09:42:46;100286.44;;;4.26;100.00
29315;BME280;16320;53.954;9.506;2023-11-25T09:45:15;100288.09;;;4.28;100.00
29315;BME280;16320;53.954;9.506;2023-11-25T09:47:44;100283.63;;;4.32;100.00
29315;BME280;16320;53.954;9.506;2023-11-25T09:50:13;100280.09;;;4.34;100.00
29315;BME280;16320;53.954;9.506;2023-11-25T09:52:53;100284.22;;;4.40;100.00
29315;BME280;16320;53.954;9.506;2023-11-25T09:55:22;100287.47;;;4.47;100.00
29315;BME280;16320;53.954;9.506;2023-11-25T09:58:07;100290.84;;;4.50;100.00
29315;BME280;16320;53.954;9.506;2023-11-25T10:00:36;100290.63;;;4.56;100.00
29315;BME280;16320;53.954;9.506;2023-11-25T10:03:07;100297.31;;;4.64;100.00
29315;BME280;16320;53.954;9.506;2023-11-25T10:05:42;100292.81;;;4.69;100.00
29315;BME280;16320;53.954;9.506;2023-11-25T10:08:10;100292.56;;;4.76;100.00
29315;BME280;16320;53.954;9.506;2023-11-25T10:10:39;100300.91;;;4.86;100.00
29315;BME280;16320;53.954;9.506;2023-11-25T10:13:16;100309.13;;;4.99;100.00
29315;BME280;16320;53.954;9.506;2023-11-25T10:15:46;100308.63;;;5.13;100.00
29315;BME280;16320;53.954;9.506;2023-11-25T10:18:14;100299.59;;;5.23;100.00
29315;BME280;16320;53.954;9.506;2023-11-25T10:20:43;100302.81;;;5.30;100.00
29315;BME280;16320;53.954;9.506;2023-11-25T10:23:21;100300.84;;;5.37;100.00
29315;BME280;16320;53.954;9.506;2023-11-25T10:25:50;100307.72;;;5.38;100.00
29315;BME280;16320;53.954;9.506;2023-11-25T10:28:21;100304.78;;;5.47;100.00
29315;BME280;16320;53.954;9.506;2023-11-25T10:30:56;100307.22;;;5.52;100.00
29315;BME280;16320;53.954;9.506;2023-11-25T10:33:27;100306.38;;;5.51;100.00
29315;BME280;16320;53.954;9.506;2023-11-25T10:35:56;100311.34;;;5.57;100.00
29315;BME280;16320;53.954;9.506;2023-11-25T10:38:26;100297.47;;;5.57;100.00
29315;BME280;16320;53.954;9.506;2023-11-25T10:41:03;100297.31;;;5.61;100.00
29315;BME280;16320;53.954;9.506;2023-11-25T10:43:33;100280.84;;;5.61;100.00
29315;BME280;16320;53.954;9.506;2023-11-25T10:46:10;100274.88;;;5.57;100.00
29315;BME280;16320;53.954;9.506;2023-11-25T10:48:39;100279.00;;;5.63;100.00
29315;BME280;16320;53.954;9.506;2023-11-25T10:51:07;100272.97;;;5.62;100.00
29315;BME280;16320;53.954;9.506;2023-11-25T10:53:37;100272.97;;;5.62;100.00
29315;BME280;16320;53.954;9.506;2023-11-25T10:56:08;100273.19;;;5.56;100.00
29315;BME280;16320;53.954;9.506;2023-11-25T10:58:36;100277.56;;;5.56;100.00
29315;BME280;16320;53.954;9.506;2023-11-25T11:01:05;100286.94;;;5.60;100.00
29315;BME280;16320;53.954;9.506;2023-11-25T11:04:17;100304.91;;;5.67;100.00
29315;BME280;16320;53.954;9.506;2023-11-25T11:06:48;100308.34;;;5.68;100.00
29315;BME280;16320;53.954;9.506;2023-11-25T11:09:24;100297.88;;;5.69;100.00
29315;BME280;16320;53.954;9.506;2023-11-25T11:12:01;100296.34;;;5.64;100.00
29315;BME280;16320;53.954;9.506;2023-11-25T11:14:34;100300.25;;;5.76;100.00
29315;BME280;16320;53.954;9.506;2023-11-25T11:17:26;100300.47;;;5.69;100.00
29315;BME280;16320;53.954;9.506;2023-11-25T11:19:58;100300.41;;;5.71;100.00
29315;BME280;16320;53.954;9.506;2023-11-25T11:22:27;100296.09;;;5.70;100.00
29315;BME280;16320;53.954;9.506;2023-11-25T11:34:13;100292.88;;;5.63;100.00
29315;BME280;16320;53.954;9.506;2023-11-25T11:36:41;100294.53;;;5.66;100.00
29315;BME280;16320;53.954;9.506;2023-11-25T11:50:27;100294.19;;;5.75;100.00
29315;BME280;16320;53.954;9.506;2023-11-25T11:55:38;100295.88;;;5.76;100.00
29315;BME280;16320;53.954;9.506;2023-11-25T11:58:12;100288.66;;;5.83;100.00
29315;BME280;16320;53.954;9.506;2023-11-25T12:00:48;100286.59;;;5.91;100.00
29315;BME280;16320;53.954;9.506;2023-11-25T12:03:20;100282.84;;;6.00;100.00
29315;BME280;16320;53.954;9.506;2023-11-25T12:05:49;100290.72;;;5.98;100.00
29315;BME280;16320;53.954;9.506;2023-11-25T12:08:19;100293.97;;;6.03;100.00
29315;BME280;16320;53.954;9.506;2023-11-25T12:10:49;100290.53;;;6.03;100.00
29315;BME280;16320;53.954;9.506;2023-11-25T12:13:31;100291.59;;;5.97;100.00
29315;BME280;16320;53.954;9.506;2023-11-25T12:16:00;100303.06;;;5.93;100.00
29315;BME280;16320;53.954;9.506;2023-11-25T12:18:33;100305.72;;;5.92;100.00
29315;BME280;16320;53.954;9.506;2023-11-25T12:21:02;100301.34;;;5.92;100.00
29315;BME280;16320;53.954;9.506;2023-11-25T12:23:32;100308.38;;;5.90;100.00
29315;BME280;16320;53.954;9.506;2023-11-25T12:26:21;100309.28;;;5.89;100.00
29315;BME280;16320;53.954;9.506;2023-11-25T12:28:50;100317.16;;;5.87;100.00
29315;BME280;16320;53.954;9.506;2023-11-25T12:31:18;100321.47;;;5.89;100.00
29315;BME280;16320;53.954;9.506;2023-11-25T12:33:46;100327.53;;;5.89;100.00
29315;BME280;16320;53.954;9.506;2023-11-25T12:36:15;100331.03;;;5.88;100.00
29315;BME280;16320;53.954;9.506;2023-11-25T12:38:43;100336.25;;;5.88;100.00
29315;BME280;16320;53.954;9.506;2023-11-25T12:41:12;100334.56;;;5.87;100.00
29315;BME280;16320;53.954;9.506;2023-11-25T12:44:07;100337.94;;;5.89;100.00
29315;BME280;16320;53.954;9.506;2023-11-25T12:46:39;100350.19;;;5.87;100.00
29315;BME280;16320;53.954;9.506;2023-11-25T12:49:19;100345.09;;;5.84;100.00
29315;BME280;16320;53.954;9.506;2023-11-25T12:51:49;100345.09;;;5.84;100.00
29315;BME280;16320;53.954;9.506;2023-11-25T12:54:19;100352.13;;;5.82;100.00
29315;BME280;16320;53.954;9.506;2023-11-25T12:56:53;100352.25;;;5.79;100.00
29315;BME280;16320;53.954;9.506;2023-11-25T12:59:26;100354.75;;;5.82;100.00
29315;BME280;16320;53.954;9.506;2023-11-25T13:02:11;100359.13;;;5.80;100.00
29315;BME280;16320;53.954;9.506;2023-11-25T13:04:47;100366.44;;;5.94;100.00
29315;BME280;16320;53.954;9.506;2023-11-25T13:07:34;100373.16;;;6.01;100.00
29315;BME280;16320;53.954;9.506;2023-11-25T13:10:02;100375.81;;;5.99;100.00
29315;BME280;16320;53.954;9.506;2023-11-25T13:12:31;100387.91;;;6.02;100.00
29315;BME280;16320;53.954;9.506;2023-11-25T13:15:00;100383.34;;;6.07;100.00
29315;BME280;16320;53.954;9.506;2023-11-25T13:17:30;100391.22;;;6.05;100.00
29315;BME280;16320;53.954;9.506;2023-11-25T13:19:58;100387.94;;;6.00;100.00
29315;BME280;16320;53.954;9.506;2023-11-25T13:22:26;100385.22;;;6.03;100.00
29315;BME280;16320;53.954;9.506;2023-11-25T13:24:54;100385.78;;;6.12;100.00
29315;BME280;16320;53.954;9.506;2023-11-25T13:27:22;100399.72;;;6.11;100.00
29315;BME280;16320;53.954;9.506;2023-11-25T13:29:50;100396.31;;;6.09;100.00